Time;durP1;ratioP1;P1;durP2;ratioP2;P2;SDS_P1;SDS_P2;PMS_P1;PMS_P2;Temp;Humidity;BMP_temperature;BMP_pressure;BME280_temperature;BME280_humidity;BME280_pressure;Samples;Min_cycle;Max_cycle;Signal;HPM_P1;HPM_P2
2023/04/09 00:00:35;;;;;;;10.40;7.85;;;8.30;99.90;;;;;;4992722;28;20080;-47
2023/04/09 00:03:00;;;;;;;10.55;8.00;;;8.20;99.90;;;;;;4991249;28;20033;-51
2023/04/09 00:05:26;;;;;;;9.88;7.38;;;8.20;99.90;;;;;;4992347;28;20061;-51
2023/04/09 00:07:51;;;;;;;11.18;8.40;;;8.20;99.90;;;;;;4992246;28;20023;-49
2023/04/09 00:10:17;;;;;;;11.38;7.80;;;8.20;99.90;;;;;;4992464;28;20336;-47
2023/04/09 00:12:42;;;;;;;12.02;7.70;;;8.20;99.90;;;;;;4992328;28;20469;-48
2023/04/09 00:15:08;;;;;;;10.70;7.65;;;8.20;99.90;;;;;;4991010;28;20614;-51
2023/04/09 00:17:34;;;;;;;13.23;8.45;;;8.30;99.90;;;;;;4991109;28;20037;-49
2023/04/09 00:20:00;;;;;;;10.05;8.15;;;8.30;99.90;;;;;;4992409;28;20022;-49
2023/04/09 00:22:25;;;;;;;11.50;7.97;;;8.30;99.90;;;;;;4990676;28;20033;-52
2023/04/09 00:24:51;;;;;;;10.52;7.70;;;8.30;99.90;;;;;;4990999;28;20026;-49
2023/04/09 00:27:16;;;;;;;10.63;8.27;;;8.30;99.90;;;;;;4992327;28;20032;-49
2023/04/09 00:29:42;;;;;;;11.43;8.10;;;8.30;99.90;;;;;;4990871;28;20060;-53
2023/04/09 00:32:07;;;;;;;10.00;6.88;;;8.20;99.90;;;;;;4992128;28;20062;-49
2023/04/09 00:34:33;;;;;;;10.80;7.88;;;8.10;99.90;;;;;;4990908;28;20027;-48
2023/04/09 00:36:59;;;;;;;10.18;7.65;;;8.10;99.90;;;;;;4991641;28;20042;-51
2023/04/09 00:39:25;;;;;;;11.68;8.80;;;8.10;99.90;;;;;;4991577;28;20050;-50
2023/04/09 00:42:01;;;;;;;11.82;8.02;;;8.10;99.90;;;;;;4991686;28;20065;-55
2023/04/09 00:44:26;;;;;;;10.98;7.88;;;8.20;99.90;;;;;;4991768;28;20031;-47
2023/04/09 00:46:53;;;;;;;12.60;8.43;;;8.10;99.90;;;;;;4991860;28;20041;-50
2023/04/09 00:49:19;;;;;;;9.82;7.18;;;8.10;99.90;;;;;;4990416;28;20050;-51
2023/04/09 00:51:45;;;;;;;9.70;7.03;;;8.10;99.90;;;;;;4992535;28;20031;-48
2023/04/09 00:54:11;;;;;;;9.98;7.70;;;8.10;99.90;;;;;;4991746;28;20118;-48
2023/04/09 00:56:37;;;;;;;10.10;7.55;;;8.10;99.90;;;;;;4991919;28;20026;-49
2023/04/09 00:59:03;;;;;;;11.25;8.32;;;8.00;99.90;;;;;;4991699;28;20041;-49
2023/04/09 01:01:29;;;;;;;11.63;7.93;;;8.00;99.90;;;;;;4992042;28;20547;-52
2023/04/09 01:03:55;;;;;;;10.50;7.57;;;8.00;99.90;;;;;;4991829;28;20035;-49
2023/04/09 01:06:49;;;;;;;10.02;7.93;;;7.90;99.90;;;;;;4992003;28;20015;-51
2023/04/09 01:09:29;;;;;;;13.07;7.55;;;7.80;99.90;;;;;;4992031;28;20133;-50
2023/04/09 01:12:16;;;;;;;11.15;7.82;;;7.70;99.90;;;;;;4991879;28;20065;-50
2023/04/09 01:15:10;;;;;;;12.45;8.40;;;7.70;99.90;;;;;;4991798;28;20094;-49
2023/04/09 01:18:05;;;;;;;13.77;7.97;;;7.60;99.90;;;;;;4992070;28;20026;-50
2023/04/09 01:20:52;;;;;;;12.85;8.23;;;7.50;99.90;;;;;;4992010;28;20397;-48
2023/04/09 01:23:50;;;;;;;13.25;8.38;;;7.50;99.90;;;;;;4991655;28;20041;-48
2023/04/09 01:26:40;;;;;;;11.68;8.15;;;7.50;99.90;;;;;;4978436;28;20086;-50
2023/04/09 01:29:06;;;;;;;12.35;8.25;;;7.40;99.90;;;;;;4991899;28;20030;-48
2023/04/09 01:31:36;;;;;;;10.80;8.60;;;7.40;99.90;;;;;;4991597;28;20486;-47
2023/04/09 01:34:03;;;;;;;11.77;8.45;;;7.40;99.90;;;;;;4991695;28;20038;-49
2023/04/09 01:36:31;;;;;;;13.85;9.07;;;7.30;99.90;;;;;;4991762;28;20030;-53
2023/04/09 01:38:56;;;;;;;12.50;8.48;;;7.20;99.90;;;;;;4991694;28;20568;-53
2023/04/09 01:41:23;;;;;;;10.20;8.27;;;7.20;99.90;;;;;;4991608;28;20061;-53
2023/04/09 01:43:51;;;;;;;12.45;9.02;;;7.20;99.90;;;;;;4989929;28;20419;-49
2023/04/09 01:46:21;;;;;;;11.95;8.68;;;7.10;99.90;;;;;;4990294;28;20058;-46
2023/04/09 01:48:47;;;;;;;12.65;9.45;;;7.10;99.90;;;;;;4993215;28;20102;-50
2023/04/09 01:51:13;;;;;;;14.98;9.20;;;7.10;99.90;;;;;;4995341;28;20026;-56
2023/04/09 01:53:40;;;;;;;12.43;8.98;;;7.00;99.90;;;;;;4994988;28;20026;-49
2023/04/09 01:56:07;;;;;;;13.35;9.23;;;7.00;99.90;;;;;;4995041;28;20030;-52
2023/04/09 01:58:33;;;;;;;15.35;9.55;;;7.00;99.90;;;;;;4994962;28;20022;-50
2023/04/09 02:01:11;;;;;;;14.25;8.77;;;6.90;99.90;;;;;;4995093;28;20030;-48
2023/04/09 02:03:51;;;;;;;13.43;9.10;;;6.90;99.90;;;;;;4994966;28;20486;-49
2023/04/09 02:06:37;;;;;;;12.10;9.05;;;6.80;99.90;;;;;;4994429;28;20072;-49
2023/04/09 02:09:06;;;;;;;;;;;6.90;99.90;;;;;;4995314;28;20058;-49
2023/04/09 02:11:32;;;;;;;11.80;8.95;;;6.80;99.90;;;;;;4994607;28;20354;-53
2023/04/09 02:13:59;;;;;;;13.82;9.18;;;6.90;99.90;;;;;;4994618;28;20089;-52
2023/04/09 02:16:26;;;;;;;11.52;8.68;;;6.80;99.90;;;;;;4994748;28;20053;-51
2023/04/09 02:18:55;;;;;;;16.00;9.77;;;6.80;99.90;;;;;;4993319;28;20026;-50
2023/04/09 02:21:22;;;;;;;15.55;9.75;;;6.80;99.90;;;;;;4994602;28;20052;-48
2023/04/09 02:23:48;;;;;;;13.70;9.90;;;6.70;99.90;;;;;;4993102;28;20070;-55
2023/04/09 02:26:14;;;;;;;14.70;10.32;;;6.70;99.90;;;;;;4994557;28;20065;-55
2023/04/09 02:28:39;;;;;;;12.57;9.35;;;6.70;99.90;;;;;;4993160;28;20054;-52
2023/04/09 02:31:05;;;;;;;15.10;9.43;;;6.70;99.90;;;;;;4994434;28;20026;-52
2023/04/09 02:33:30;;;;;;;13.98;9.27;;;6.70;99.90;;;;;;4994216;28;20031;-51
2023/04/09 02:35:56;;;;;;;15.75;9.73;;;6.60;99.90;;;;;;4994154;28;20027;-49
2023/04/09 02:38:21;;;;;;;15.40;9.93;;;6.60;99.90;;;;;;4993819;28;20026;-48
2023/04/09 02:40:47;;;;;;;14.02;9.95;;;6.50;99.90;;;;;;4994264;28;20030;-48
2023/04/09 02:43:12;;;;;;;15.32;10.18;;;6.40;99.90;;;;;;4994029;28;20031;-52
2023/04/09 02:45:38;;;;;;;14.82;10.18;;;6.40;99.90;;;;;;4993628;28;20516;-51
2023/04/09 02:48:04;;;;;;;15.70;10.23;;;6.40;99.90;;;;;;4994068;28;20111;-50
2023/04/09 02:50:29;;;;;;;14.13;9.80;;;6.40;99.90;;;;;;4994279;28;20018;-50
2023/04/09 02:52:55;;;;;;;14.85;9.40;;;6.40;99.90;;;;;;4993903;28;20112;-51
2023/04/09 02:55:20;;;;;;;16.75;9.93;;;6.40;99.90;;;;;;4993760;28;20022;-51
2023/04/09 02:57:46;;;;;;;16.00;10.35;;;6.40;99.90;;;;;;4992598;28;20026;-51
2023/04/09 03:00:12;;;;;;;15.35;10.90;;;6.30;99.90;;;;;;4992005;28;20034;-53
2023/04/09 03:02:37;;;;;;;18.33;10.85;;;6.30;99.90;;;;;;4993374;28;20030;-48
2023/04/09 03:05:03;;;;;;;16.23;9.82;;;6.30;99.90;;;;;;4993383;28;20122;-48
2023/04/09 03:07:29;;;;;;;15.38;10.70;;;6.30;99.90;;;;;;4993536;28;20018;-45
2023/04/09 03:09:54;;;;;;;18.27;10.65;;;6.20;99.90;;;;;;4993154;28;20023;-48
2023/04/09 03:12:20;;;;;;;17.27;10.75;;;6.20;99.90;;;;;;4993289;28;20022;-53
2023/04/09 03:14:45;;;;;;;13.85;9.55;;;6.10;99.90;;;;;;4993246;28;20034;-50
2023/04/09 03:17:11;;;;;;;16.45;10.93;;;6.10;99.90;;;;;;4993535;28;20092;-52
2023/04/09 03:19:36;;;;;;;16.35;10.90;;;6.00;99.90;;;;;;4993722;28;20027;-50
2023/04/09 03:22:02;;;;;;;15.05;9.75;;;6.00;99.90;;;;;;4991930;28;20176;-48
2023/04/09 03:24:27;;;;;;;15.10;10.55;;;5.90;99.90;;;;;;4993167;28;20033;-51
2023/04/09 03:26:53;;;;;;;18.10;10.80;;;5.90;99.90;;;;;;4993722;28;20031;-48
2023/04/09 03:29:18;;;;;;;19.02;11.35;;;6.00;99.90;;;;;;4993159;28;20022;-51
2023/04/09 03:31:44;;;;;;;16.42;10.95;;;6.10;99.90;;;;;;4993153;28;20389;-49
2023/04/09 03:34:09;;;;;;;15.90;10.50;;;6.10;99.90;;;;;;4993130;28;20534;-49
2023/04/09 03:36:35;;;;;;;16.25;11.10;;;6.10;99.90;;;;;;4993303;28;20109;-52
2023/04/09 03:39:00;;;;;;;17.52;11.65;;;6.00;99.90;;;;;;4992923;28;20030;-49
2023/04/09 03:41:26;;;;;;;16.33;11.15;;;6.10;99.90;;;;;;4992105;28;20026;-49
2023/04/09 03:43:52;;;;;;;16.40;10.68;;;6.00;99.90;;;;;;4992098;28;20030;-48
2023/04/09 03:46:17;;;;;;;16.20;10.73;;;6.00;99.90;;;;;;4992902;28;20065;-51
2023/04/09 03:48:44;;;;;;;16.10;10.25;;;5.90;99.90;;;;;;4992862;28;20019;-49
2023/04/09 03:51:14;;;;;;;17.90;11.30;;;5.90;99.90;;;;;;4992971;28;20023;-49
2023/04/09 03:53:40;;;;;;;16.95;11.50;;;5.90;99.90;;;;;;4992786;28;20026;-50
2023/04/09 03:56:06;;;;;;;19.13;11.18;;;5.90;99.90;;;;;;4992602;28;20057;-49
2023/04/09 03:58:32;;;;;;;17.83;10.05;;;6.00;99.90;;;;;;4991369;28;20069;-48
2023/04/09 04:00:58;;;;;;;15.75;10.77;;;5.90;99.90;;;;;;4992854;28;20525;-50
2023/04/09 04:03:23;;;;;;;20.70;11.82;;;5.90;99.90;;;;;;4992782;28;20045;-49
2023/04/09 04:05:49;;;;;;;15.30;10.25;;;5.90;99.90;;;;;;4992446;28;20434;-48
2023/04/09 04:08:14;;;;;;;16.25;11.60;;;5.90;99.90;;;;;;4992484;28;20451;-48
2023/04/09 04:10:40;;;;;;;17.17;11.60;;;5.80;99.90;;;;;;4992215;28;20422;-53
2023/04/09 04:13:07;;;;;;;16.38;11.43;;;5.90;99.90;;;;;;4992206;28;20398;-48
2023/04/09 04:15:33;;;;;;;19.40;10.68;;;5.80;99.90;;;;;;4992487;28;20069;-53
2023/04/09 04:17:59;;;;;;;23.40;12.20;;;5.80;99.90;;;;;;4992234;28;20118;-50
2023/04/09 04:20:25;;;;;;;18.08;11.73;;;5.80;99.90;;;;;;4992333;28;20058;-54
2023/04/09 04:22:50;;;;;;;19.45;12.43;;;5.70;99.90;;;;;;4992384;28;20034;-52
2023/04/09 04:25:16;;;;;;;18.20;11.32;;;5.70;99.90;;;;;;4992417;28;20031;-53
2023/04/09 04:27:42;;;;;;;18.33;11.63;;;5.70;99.90;;;;;;4992526;28;20030;-52
2023/04/09 04:30:08;;;;;;;17.80;11.75;;;5.60;99.90;;;;;;4992524;28;20026;-52
2023/04/09 04:32:33;;;;;;;21.67;11.75;;;5.60;99.90;;;;;;4992220;28;20562;-52
2023/04/09 04:34:59;;;;;;;19.50;12.68;;;5.60;99.90;;;;;;4990819;28;20430;-49
2023/04/09 04:37:24;;;;;;;17.75;11.00;;;5.50;99.90;;;;;;4992259;28;20479;-52
2023/04/09 04:39:50;;;;;;;21.85;11.85;;;5.50;99.90;;;;;;4992287;28;20164;-48
2023/04/09 04:42:16;;;;;;;18.98;11.32;;;5.50;99.90;;;;;;4992456;28;20092;-51
2023/04/09 04:44:42;;;;;;;17.15;11.90;;;5.40;99.90;;;;;;4991680;28;20026;-52
2023/04/09 04:47:08;;;;;;;19.50;12.30;;;5.30;99.90;;;;;;4992119;28;20057;-48
2023/04/09 04:49:33;;;;;;;17.65;11.40;;;5.20;99.90;;;;;;4991569;28;20081;-52
2023/04/09 04:51:59;;;;;;;15.82;10.85;;;5.20;99.90;;;;;;4992066;28;20022;-50
2023/04/09 04:54:25;;;;;;;24.27;11.55;;;5.20;99.90;;;;;;4991901;28;20035;-49
2023/04/09 04:56:50;;;;;;;17.88;10.73;;;5.20;99.90;;;;;;4992055;28;20097;-49
2023/04/09 04:59:16;;;;;;;15.45;10.82;;;5.30;99.90;;;;;;4991953;28;20060;-52
2023/04/09 05:01:41;;;;;;;20.17;12.48;;;5.20;99.90;;;;;;4992055;28;20036;-47
2023/04/09 05:04:07;;;;;;;17.27;10.75;;;5.20;99.90;;;;;;4991629;28;20509;-50
2023/04/09 05:06:32;;;;;;;19.38;12.38;;;5.20;99.90;;;;;;4991993;28;20023;-50
2023/04/09 05:08:58;;;;;;;18.13;11.82;;;5.10;99.90;;;;;;4991862;28;20027;-47
2023/04/09 05:11:24;;;;;;;20.05;12.45;;;5.10;99.90;;;;;;4991888;28;20045;-50
2023/04/09 05:13:50;;;;;;;17.08;11.65;;;5.10;99.90;;;;;;4991612;28;20031;-47
2023/04/09 05:16:19;;;;;;;21.05;12.88;;;5.10;99.90;;;;;;4991773;28;20033;-49
2023/04/09 05:18:45;;;;;;;22.08;13.75;;;5.10;99.90;;;;;;4991632;28;20109;-48
2023/04/09 05:21:11;;;;;;;19.08;12.80;;;5.20;99.90;;;;;;4991761;28;20043;-51
2023/04/09 05:23:36;;;;;;;18.77;11.70;;;5.20;99.90;;;;;;4993581;28;20026;-48
2023/04/09 05:26:02;;;;;;;19.25;11.65;;;5.20;99.90;;;;;;4993621;28;20037;-47
2023/04/09 05:28:28;;;;;;;20.08;12.35;;;5.20;99.90;;;;;;4995267;28;20454;-51
2023/04/09 05:30:53;;;;;;;21.52;12.60;;;5.10;99.90;;;;;;4995417;28;20077;-47
2023/04/09 05:33:19;;;;;;;24.58;13.45;;;5.20;99.90;;;;;;4995197;28;20478;-50
2023/04/09 05:35:44;;;;;;;23.77;13.35;;;5.20;99.90;;;;;;4994169;28;20054;-51
2023/04/09 05:38:10;;;;;;;23.88;13.65;;;5.20;99.90;;;;;;4995177;28;20034;-48
2023/04/09 05:40:35;;;;;;;20.58;12.82;;;5.10;99.90;;;;;;4993928;28;20023;-50
2023/04/09 05:43:01;;;;;;;25.35;12.93;;;5.10;99.90;;;;;;4995147;28;20402;-49
2023/04/09 05:45:29;;;;;;;19.85;12.75;;;5.20;99.90;;;;;;4995294;28;20112;-48
2023/04/09 05:47:55;;;;;;;20.33;12.40;;;5.20;99.90;;;;;;4994991;28;20045;-47
2023/04/09 05:50:21;;;;;;;24.15;12.57;;;5.10;99.90;;;;;;4995206;28;20026;-48
2023/04/09 05:52:46;;;;;;;21.25;12.88;;;5.00;99.90;;;;;;4994750;28;20033;-49
2023/04/09 05:55:12;;;;;;;19.50;12.70;;;5.00;99.90;;;;;;4994794;28;20114;-49
2023/04/09 05:57:37;;;;;;;20.05;12.30;;;5.10;99.90;;;;;;4994598;28;20394;-49
2023/04/09 06:00:03;;;;;;;20.23;11.70;;;5.30;99.90;;;;;;4994624;28;20085;-48
2023/04/09 06:02:29;;;;;;;28.20;12.15;;;5.30;99.90;;;;;;4994712;28;20029;-50
2023/04/09 06:04:54;;;;;;;18.20;12.00;;;5.30;99.90;;;;;;4994558;28;20026;-54
2023/04/09 06:07:20;;;;;;;18.15;12.27;;;5.20;99.90;;;;;;4994664;28;20371;-49
2023/04/09 06:09:46;;;;;;;20.73;12.75;;;5.20;99.90;;;;;;4994690;28;20022;-49
2023/04/09 06:12:12;;;;;;;22.10;14.05;;;5.30;99.90;;;;;;4994636;28;20033;-49
2023/04/09 06:14:38;;;;;;;19.25;12.20;;;5.30;99.90;;;;;;4994489;28;20494;-51
2023/04/09 06:17:03;;;;;;;20.23;12.57;;;5.40;99.90;;;;;;4994640;28;20046;-49
2023/04/09 06:19:29;;;;;;;20.67;13.00;;;5.50;99.90;;;;;;4994399;28;20483;-50
2023/04/09 06:21:55;;;;;;;20.67;13.52;;;5.60;99.90;;;;;;4994323;28;20509;-56
2023/04/09 06:24:20;;;;;;;20.27;13.63;;;5.60;99.90;;;;;;4994113;28;20033;-50
2023/04/09 06:26:46;;;;;;;22.10;13.35;;;5.70;99.90;;;;;;4994575;28;20026;-50
2023/04/09 06:29:11;;;;;;;22.85;14.27;;;5.80;99.90;;;;;;4994191;28;20037;-50
2023/04/09 06:31:37;;;;;;;25.80;14.00;;;6.00;99.90;;;;;;4994089;28;20022;-49
2023/04/09 06:34:02;;;;;;;23.55;13.65;;;6.20;99.90;;;;;;4993439;28;20532;-49
2023/04/09 06:36:29;;;;;;;21.98;13.55;;;6.50;99.90;;;;;;4994251;28;20026;-50
2023/04/09 06:38:55;;;;;;;19.98;12.93;;;6.80;99.90;;;;;;4994176;28;20026;-49
2023/04/09 06:41:21;;;;;;;19.63;13.80;;;7.10;99.90;;;;;;4994577;28;20034;-52
2023/04/09 06:43:46;;;;;;;19.80;13.95;;;7.40;99.90;;;;;;4993785;28;20028;-50
2023/04/09 06:46:16;;;;;;;18.65;12.93;;;7.80;99.90;;;;;;4992815;28;20117;-49
2023/04/09 06:48:43;;;;;;;20.08;12.48;;;8.10;99.90;;;;;;4994075;28;20509;-48
2023/04/09 06:51:09;;;;;;;20.52;13.27;;;8.20;99.90;;;;;;4994179;28;20025;-51
2023/04/09 06:53:35;;;;;;;19.98;13.32;;;8.40;99.90;;;;;;4994360;28;20497;-49
2023/04/09 06:56:01;;;;;;;19.65;13.15;;;8.40;99.90;;;;;;4992529;28;20033;-49
2023/04/09 06:58:26;;;;;;;18.50;12.13;;;8.80;99.90;;;;;;4993850;28;20042;-53
2023/04/09 07:00:52;;;;;;;22.95;13.18;;;9.00;99.90;;;;;;4992562;28;20132;-49
2023/04/09 07:03:18;;;;;;;19.45;12.45;;;9.20;99.90;;;;;;4993628;28;20038;-47
2023/04/09 07:05:45;;;;;;;18.67;13.10;;;9.30;99.90;;;;;;4993321;28;20030;-49
2023/04/09 07:08:11;;;;;;;20.20;13.32;;;9.80;99.90;;;;;;4992548;28;20023;-47
2023/04/09 07:10:37;;;;;;;17.50;11.73;;;10.30;99.90;;;;;;4993333;28;20026;-50
2023/04/09 07:13:02;;;;;;;18.83;13.23;;;11.00;99.90;;;;;;4993387;28;20022;-47
2023/04/09 07:15:28;;;;;;;18.70;13.23;;;11.80;99.90;;;;;;4993422;28;20034;-49
2023/04/09 07:17:53;;;;;;;18.92;12.18;;;12.50;99.90;;;;;;4993318;28;20414;-49
2023/04/09 07:20:19;;;;;;;15.88;12.43;;;12.90;99.90;;;;;;4993397;28;20512;-47
2023/04/09 07:22:44;;;;;;;17.98;12.80;;;12.70;99.90;;;;;;4993350;28;20032;-48
2023/04/09 07:25:10;;;;;;;17.45;12.70;;;12.70;99.90;;;;;;4993244;28;20038;-47
2023/04/09 07:27:36;;;;;;;16.05;12.82;;;12.90;99.90;;;;;;4991955;28;20026;-48
2023/04/09 07:30:02;;;;;;;20.17;13.13;;;12.50;99.90;;;;;;4993214;28;20455;-49
2023/04/09 07:32:27;;;;;;;17.98;12.77;;;11.90;99.90;;;;;;4993084;28;20019;-48
2023/04/09 07:34:54;;;;;;;16.00;12.77;;;11.70;99.90;;;;;;4991913;28;20030;-45
2023/04/09 07:37:20;;;;;;;20.15;14.07;;;11.40;99.90;;;;;;4992848;28;20109;-48
2023/04/09 07:39:46;;;;;;;20.35;13.48;;;11.10;99.90;;;;;;4992029;28;20068;-48
2023/04/09 07:42:12;;;;;;;19.20;13.80;;;10.90;99.90;;;;;;4992922;28;20030;-46
2023/04/09 07:44:37;;;;;;;20.77;13.27;;;11.00;99.90;;;;;;4992154;28;20384;-52
2023/04/09 07:47:04;;;;;;;18.23;13.30;;;11.00;99.90;;;;;;4992868;28;20034;-49
2023/04/09 07:49:30;;;;;;;20.88;13.80;;;11.20;99.90;;;;;;4992682;28;20510;-49
2023/04/09 07:51:56;;;;;;;18.65;14.15;;;11.50;99.90;;;;;;4992810;28;20041;-49
2023/04/09 07:54:22;;;;;;;20.70;13.90;;;11.70;99.90;;;;;;4992497;28;20026;-47
2023/04/09 07:56:47;;;;;;;16.77;12.88;;;11.60;99.90;;;;;;4992787;28;20152;-51
2023/04/09 07:59:14;;;;;;;20.63;15.30;;;11.80;99.90;;;;;;4975149;28;20081;-51
2023/04/09 08:01:40;;;;;;;21.27;13.75;;;11.90;99.90;;;;;;4992717;28;20023;-49
2023/04/09 08:04:06;;;;;;;19.17;14.52;;;12.10;99.90;;;;;;4992320;28;20022;-49
2023/04/09 08:06:31;;;;;;;20.35;14.90;;;12.00;99.90;;;;;;4990486;28;20490;-49
2023/04/09 08:08:57;;;;;;;18.33;14.00;;;11.80;99.90;;;;;;4992162;28;20506;-52
2023/04/09 08:11:24;;;;;;;20.42;14.88;;;11.50;99.90;;;;;;4989815;28;20022;-47
2023/04/09 08:13:51;;;;;;;21.50;15.43;;;11.50;99.90;;;;;;4991564;28;20562;-47
2023/04/09 08:16:17;;;;;;;19.30;13.18;;;12.00;99.90;;;;;;4991503;28;20045;-48
2023/04/09 08:18:42;;;;;;;20.08;14.43;;;12.40;99.90;;;;;;4991925;28;20031;-49
2023/04/09 08:21:08;;;;;;;19.23;13.80;;;12.60;99.90;;;;;;4977615;28;20034;-47
2023/04/09 08:23:33;;;;;;;18.42;14.32;;;13.10;99.90;;;;;;4991622;28;20088;-55
2023/04/09 08:25:59;;;;;;;18.15;13.10;;;13.40;99.90;;;;;;4992160;28;20030;-51
2023/04/09 08:28:24;;;;;;;19.35;14.63;;;13.90;99.90;;;;;;4992191;28;20022;-51
2023/04/09 08:30:50;;;;;;;18.13;14.07;;;14.40;99.90;;;;;;4991072;28;20126;-53
2023/04/09 08:33:16;;;;;;;18.60;13.70;;;14.40;99.90;;;;;;4991669;28;20028;-56
2023/04/09 08:35:42;;;;;;;18.98;14.27;;;14.50;99.90;;;;;;4992593;28;20402;-50
2023/04/09 08:38:07;;;;;;;16.90;13.38;;;15.30;99.90;;;;;;4992803;28;20492;-52
2023/04/09 08:40:36;;;;;;;18.67;13.15;;;15.50;99.90;;;;;;4991378;28;20109;-49
2023/04/09 08:43:06;;;;;;;16.83;13.57;;;15.90;99.30;;;;;;4991639;28;20038;-53
2023/04/09 08:45:32;;;;;;;17.42;13.32;;;16.00;99.10;;;;;;4991476;28;20038;-56
2023/04/09 08:48:02;;;;;;;15.95;13.30;;;15.90;98.90;;;;;;4990258;28;20026;-49
2023/04/09 08:50:30;;;;;;;16.98;13.48;;;16.20;99.00;;;;;;4991275;28;20030;-50
2023/04/09 08:52:57;;;;;;;16.50;12.90;;;16.60;98.10;;;;;;4990548;28;20046;-51
2023/04/09 08:55:22;;;;;;;19.25;14.57;;;16.80;98.40;;;;;;4990697;28;20581;-53
2023/04/09 08:57:48;;;;;;;15.90;13.32;;;17.20;96.80;;;;;;4993885;28;20167;-51
2023/04/09 09:00:14;;;;;;;17.98;13.93;;;17.60;96.30;;;;;;4993910;28;20133;-49
2023/04/09 09:03:05;;;;;;;15.63;13.27;;;17.70;96.20;;;;;;4995952;28;20022;-51
2023/04/09 09:05:42;;;;;;;15.82;13.80;;;18.20;95.50;;;;;;4987139;28;20364;-49
2023/04/09 09:08:09;;;;;;;14.68;12.52;;;18.20;94.90;;;;;;4975190;28;20023;-51
2023/04/09 09:10:37;;;;;;;16.00;12.15;;;18.20;94.10;;;;;;4975196;28;20023;-48
2023/04/09 09:13:22;;;;;;;14.45;12.45;;;18.00;94.10;;;;;;4975057;28;20033;-46
2023/04/09 09:15:51;;;;;;;16.97;13.43;;;17.70;94.30;;;;;;4976348;28;20510;-52
2023/04/09 09:18:18;;;;;;;22.20;14.43;;;17.10;94.80;;;;;;4988228;28;20072;-49
2023/04/09 09:20:44;;;;;;;17.27;14.40;;;16.40;95.70;;;;;;4995741;28;20068;-49
2023/04/09 09:23:09;;;;;;;16.33;14.07;;;16.20;96.30;;;;;;4994845;28;20058;-51
2023/04/09 09:25:40;;;;;;;19.80;14.57;;;15.80;96.50;;;;;;4995040;28;20077;-53
2023/04/09 09:28:08;;;;;;;16.48;13.15;;;15.60;97.00;;;;;;4995197;28;20038;-53
2023/04/09 09:30:35;;;;;;;16.50;13.00;;;15.60;96.90;;;;;;4995532;28;20030;-53
2023/04/09 09:33:08;;;;;;;17.95;13.60;;;15.60;96.80;;;;;;4995230;28;20506;-49
2023/04/09 09:35:50;;;;;;;17.55;13.75;;;15.80;96.80;;;;;;4995334;28;20066;-49
2023/04/09 09:38:16;;;;;;;15.50;11.23;;;16.10;96.80;;;;;;4995481;28;20027;-49
2023/04/09 09:40:42;;;;;;;16.20;13.15;;;16.20;96.30;;;;;;4994633;28;20115;-51
2023/04/09 09:43:08;;;;;;;31.60;22.25;;;16.40;95.90;;;;;;4994740;28;20030;-49
2023/04/09 09:45:35;;;;;;;30.70;21.70;;;16.30;95.70;;;;;;4994753;28;20038;-51
2023/04/09 09:48:02;;;;;;;43.92;29.38;;;16.60;94.70;;;;;;4994969;28;20018;-51
2023/04/09 09:50:31;;;;;;;13.27;10.23;;;16.70;94.10;;;;;;4995127;28;20023;-50
2023/04/09 09:53:07;;;;;;;14.00;11.32;;;16.90;93.80;;;;;;4995276;28;20102;-48
2023/04/09 09:55:37;;;;;;;15.98;12.70;;;16.90;93.80;;;;;;4994888;28;21754;-52
2023/04/09 09:58:11;;;;;;;14.43;11.68;;;16.80;94.70;;;;;;4994909;28;20042;-49
2023/04/09 10:00:39;;;;;;;12.80;10.25;;;16.50;95.40;;;;;;4994543;28;20160;-49
2023/04/09 10:03:17;;;;;;;10.25;8.18;;;16.30;95.30;;;;;;4995031;28;20191;-51
2023/04/09 10:05:44;;;;;;;8.50;7.15;;;16.10;93.70;;;;;;4994720;28;20080;-52
2023/04/09 10:08:11;;;;;;;11.65;9.38;;;16.00;94.00;;;;;;4994263;28;20030;-53
2023/04/09 10:10:40;;;;;;;12.05;9.55;;;16.00;94.40;;;;;;4994193;28;20418;-55
2023/04/09 10:13:09;;;;;;;12.82;10.10;;;15.90;94.30;;;;;;4994396;28;20041;-51
2023/04/09 10:15:34;;;;;;;13.82;10.57;;;15.70;94.80;;;;;;4994486;28;20105;-54
2023/04/09 10:18:00;;;;;;;13.07;10.65;;;15.50;95.10;;;;;;4992250;28;20132;-50
2023/04/09 10:20:34;;;;;;;14.15;11.88;;;15.50;95.60;;;;;;4994635;28;20041;-56
2023/04/09 10:23:05;;;;;;;15.93;12.73;;;15.10;95.40;;;;;;4994558;28;20042;-48
2023/04/09 10:25:31;;;;;;;14.55;11.75;;;14.70;96.20;;;;;;4993004;28;20061;-54
2023/04/09 10:28:01;;;;;;;14.95;11.55;;;14.50;96.90;;;;;;4992366;28;20506;-53
2023/04/09 10:30:34;;;;;;;17.35;11.85;;;14.30;97.30;;;;;;4994780;28;20077;-53
2023/04/09 10:33:20;;;;;;;15.68;12.30;;;14.10;97.70;;;;;;4993839;28;20515;-49
2023/04/09 10:35:46;;;;;;;16.77;12.30;;;13.90;98.40;;;;;;4994375;28;20030;-50
2023/04/09 10:38:13;;;;;;;17.23;13.02;;;13.90;98.90;;;;;;4995634;28;20041;-49
2023/04/09 10:40:41;;;;;;;15.15;11.98;;;13.90;99.20;;;;;;4994265;28;20096;-49
2023/04/09 10:43:08;;;;;;;13.80;10.73;;;13.90;98.80;;;;;;4993964;28;20512;-48
2023/04/09 10:45:40;;;;;;;16.20;11.82;;;14.00;98.80;;;;;;4993795;28;20034;-54
2023/04/09 10:48:12;;;;;;;18.00;11.45;;;14.20;98.60;;;;;;4983074;28;20041;-51
2023/04/09 10:50:38;;;;;;;14.25;11.75;;;14.30;98.40;;;;;;4995794;28;20479;-56
2023/04/09 10:53:03;;;;;;;14.25;10.88;;;14.30;97.70;;;;;;4994921;28;20430;-53
2023/04/09 10:55:30;;;;;;;13.90;10.73;;;14.10;97.80;;;;;;4995166;28;20038;-54
2023/04/09 10:57:57;;;;;;;13.35;10.80;;;14.10;97.80;;;;;;4995115;28;20076;-52
2023/04/09 11:00:22;;;;;;;15.63;12.55;;;14.00;97.80;;;;;;4995913;28;20061;-60
2023/04/09 11:02:58;;;;;;;14.93;11.98;;;13.90;98.10;;;;;;4993395;28;20049;-53
2023/04/09 11:05:27;;;;;;;12.95;11.20;;;13.80;98.10;;;;;;4993486;28;20042;-53
2023/04/09 11:08:12;;;;;;;13.25;10.73;;;13.70;98.60;;;;;;4993091;28;20022;-48
2023/04/09 11:10:42;;;;;;;12.68;9.85;;;13.60;99.20;;;;;;4994116;28;20033;-52
2023/04/09 11:13:15;;;;;;;14.35;10.73;;;13.80;98.90;;;;;;4996287;28;20030;-55
2023/04/09 11:15:41;;;;;;;13.15;10.20;;;13.80;98.80;;;;;;4975023;28;20410;-54
2023/04/09 11:18:08;;;;;;;23.45;16.35;;;14.10;98.90;;;;;;4991733;28;20037;-56
2023/04/09 11:20:34;;;;;;;14.50;12.13;;;14.30;98.40;;;;;;4996511;28;20053;-54
2023/04/09 11:23:00;;;;;;;16.90;12.70;;;14.30;97.70;;;;;;4990008;28;20402;-53
2023/04/09 11:25:28;;;;;;;23.67;15.02;;;14.40;97.30;;;;;;4978803;28;20098;-50
2023/04/09 11:27:54;;;;;;;8.70;7.78;;;14.50;96.40;;;;;;4977331;28;20583;-51
2023/04/09 11:30:20;;;;;;;12.40;9.10;;;14.60;95.30;;;;;;4977971;28;20059;-50
2023/04/09 11:32:47;;;;;;;11.15;8.73;;;14.60;95.10;;;;;;4993273;28;20446;-54
2023/04/09 11:35:14;;;;;;;11.27;7.68;;;14.60;95.20;;;;;;4986371;28;20148;-52
2023/04/09 11:37:42;;;;;;;11.07;8.45;;;14.50;95.50;;;;;;4977645;28;20034;-58
2023/04/09 11:40:22;;;;;;;11.02;8.50;;;14.50;95.50;;;;;;4977146;28;20117;-50
2023/04/09 11:42:49;;;;;;;9.63;8.35;;;14.50;95.70;;;;;;4983478;28;20054;-53
2023/04/09 11:45:16;;;;;;;10.55;9.35;;;14.60;96.10;;;;;;4995465;28;20038;-55
2023/04/09 11:47:43;;;;;;;8.15;7.00;;;14.50;96.20;;;;;;5000112;28;20034;-53
2023/04/09 11:50:10;;;;;;;9.63;7.82;;;14.60;96.20;;;;;;4996794;28;20105;-51
2023/04/09 11:52:37;;;;;;;9.60;7.57;;;14.70;94.80;;;;;;4992590;28;20030;-53
2023/04/09 11:55:06;;;;;;;9.98;7.90;;;14.70;93.80;;;;;;4993107;28;20486;-52
2023/04/09 11:57:41;;;;;;;9.32;6.88;;;14.60;93.60;;;;;;4992790;28;20034;-55
2023/04/09 12:00:09;;;;;;;7.40;6.57;;;14.50;93.70;;;;;;4991466;28;20081;-55
2023/04/09 12:02:41;;;;;;;8.00;7.03;;;14.60;93.40;;;;;;4993094;28;20109;-53
2023/04/09 12:05:09;;;;;;;7.38;6.00;;;14.50;92.30;;;;;;4993384;28;20026;-53
2023/04/09 12:07:36;;;;;;;7.85;5.65;;;14.40;92.80;;;;;;4991889;28;20507;-54
2023/04/09 12:10:06;;;;;;;6.93;6.18;;;14.30;92.80;;;;;;4992722;28;20022;-50
2023/04/09 12:12:45;;;;;;;7.35;5.75;;;14.20;93.10;;;;;;4991220;28;20025;-56
2023/04/09 12:15:22;;;;;;;6.47;5.75;;;14.20;93.60;;;;;;4991159;28;20077;-54
2023/04/09 12:17:54;;;;;;;6.25;5.65;;;14.30;93.00;;;;;;4984389;28;20019;-49
2023/04/09 12:20:41;;;;;;;54.95;35.03;;;14.30;93.10;;;;;;4973148;28;20077;-56
2023/04/09 12:23:07;;;;;;;15.45;10.80;;;14.40;92.80;;;;;;4972915;28;20613;-49
2023/04/09 12:25:41;;;;;;;206.25;119.25;;;14.50;92.40;;;;;;4972764;28;20027;-55
2023/04/09 12:28:08;;;;;;;12.90;7.07;;;14.70;92.70;;;;;;4972134;28;20496;-52
2023/04/09 12:30:34;;;;;;;7.70;6.40;;;14.70;92.90;;;;;;4971960;28;20030;-50
2023/04/09 12:33:02;;;;;;;6.45;5.75;;;14.60;92.20;;;;;;4976431;28;20416;-47
2023/04/09 12:35:28;;;;;;;6.70;5.95;;;14.50;92.30;;;;;;4990879;28;20026;-50
2023/04/09 12:37:54;;;;;;;13.15;8.15;;;14.50;92.30;;;;;;4990527;28;20589;-50